Higgins, Oklahoma
Current Conditions -  °F | °C
As of 9:53 PM on Saturday 20 Dec 2014 (Local Time) from KMLC Reporting Station
Overcast Overcast  
Wind Chill: 45°   Ceiling: 400
Heat Index: 45°   Visibility: 7mi
Dew Point: 43°   Wind: 3mph
Humidity: 93%   Direction: 100°E
Pressure: 30.19"   Gusts: NA
Location:  34.8806°N, 95.3086°W
Report Text: KMLC 210353Z AUTO 10003KT 7SM BKN004 OVC024 07/06 A3019 RMK AO2 SLP225 T00720061
Loading
Personal Weather Stations






























Interactive Weather Map New forecast layout! Learn more

10-Day Weather Forecast

Advertisements
Track Severe Weather on mobile